createdAt,value
2022-12-20T00:01:21.089Z,96.04
2022-12-20T00:03:50.917Z,95.46
2022-12-20T00:06:17.702Z,95.64
2022-12-20T00:08:45.240Z,95.79
2022-12-20T00:11:12.331Z,95.82
2022-12-20T00:13:39.238Z,95.82
2022-12-20T00:16:18.107Z,95.29
2022-12-20T00:18:45.148Z,96.02
2022-12-20T00:21:13.809Z,95.54
2022-12-20T00:23:40.886Z,95.77
2022-12-20T00:26:12.711Z,95.69
2022-12-20T00:28:40.496Z,95.84
2022-12-20T00:31:08.347Z,96.03
2022-12-20T00:33:36.535Z,95.94
2022-12-20T00:36:04.020Z,95.32
2022-12-20T00:38:30.604Z,95.94
2022-12-20T00:41:11.327Z,95.29
2022-12-20T00:43:38.640Z,95.87
2022-12-20T00:46:06.099Z,95.52
2022-12-20T00:48:33.217Z,95.40
2022-12-20T00:51:02.087Z,95.49
2022-12-20T00:53:29.066Z,94.70
2022-12-20T00:55:55.950Z,94.84
2022-12-20T00:58:22.606Z,94.84
2022-12-20T01:00:55.938Z,94.57
2022-12-20T01:03:23.670Z,94.49
2022-12-20T01:05:55.541Z,94.86
2022-12-20T01:08:23.364Z,94.26
2022-12-20T01:11:11.524Z,94.69
2022-12-20T01:13:41.559Z,94.77
2022-12-20T01:16:11.516Z,94.13
2022-12-20T01:18:38.171Z,94.41
2022-12-20T01:21:06.785Z,94.63
2022-12-20T01:23:33.292Z,93.77
2022-12-20T01:26:01.417Z,93.70
2022-12-20T01:28:28.983Z,93.53
2022-12-20T01:30:55.628Z,93.85
2022-12-20T01:33:22.324Z,93.99
2022-12-20T01:35:57.041Z,93.69
2022-12-20T01:38:24.172Z,93.69
2022-12-20T01:40:50.941Z,93.89
2022-12-20T01:43:18.685Z,93.70
2022-12-20T01:45:45.389Z,93.93
2022-12-20T01:48:13.498Z,93.74
2022-12-20T01:50:39.972Z,93.99
2022-12-20T01:53:06.703Z,94.06
2022-12-20T01:55:33.475Z,93.94
2022-12-20T01:58:09.892Z,93.28
2022-12-20T02:00:37.313Z,93.73
2022-12-20T02:03:09.970Z,93.14
2022-12-20T02:05:39.465Z,92.92
2022-12-20T02:08:07.996Z,92.71
2022-12-20T02:11:19.957Z,93.07
2022-12-20T02:14:06.562Z,92.97
2022-12-20T02:16:43.972Z,93.50
2022-12-20T02:19:30.340Z,93.59
2022-12-20T02:22:16.337Z,93.72
2022-12-20T02:24:48.843Z,93.37
2022-12-20T02:27:40.276Z,93.50
2022-12-20T02:30:11.424Z,92.87
2022-12-20T02:32:57.307Z,93.39
2022-12-20T02:35:27.617Z,93.10
2022-12-20T02:37:56.347Z,93.14
2022-12-20T02:40:32.025Z,93.25
2022-12-20T02:43:02.852Z,93.48
2022-12-20T02:45:37.286Z,93.51
2022-12-20T02:48:08.480Z,93.34
2022-12-20T02:50:43.472Z,93.79
2022-12-20T02:53:11.125Z,93.63
2022-12-20T02:55:57.266Z,93.69
2022-12-20T02:58:32.272Z,93.19
2022-12-20T03:01:04.596Z,93.58
2022-12-20T03:03:33.670Z,93.06
2022-12-20T03:06:00.583Z,93.29
2022-12-20T03:08:27.143Z,93.33
2022-12-20T03:10:55.242Z,93.01
2022-12-20T03:13:23.866Z,93.64
2022-12-20T03:15:50.479Z,93.27
2022-12-20T03:18:17.054Z,93.20
2022-12-20T03:20:43.994Z,93.32
2022-12-20T03:23:10.577Z,93.37
2022-12-20T03:25:37.071Z,93.13
2022-12-20T03:28:03.610Z,92.87
2022-12-20T03:30:30.053Z,92.79
2022-12-20T03:32:56.540Z,92.83
2022-12-20T03:35:22.993Z,92.97
2022-12-20T03:37:49.385Z,92.92
2022-12-20T03:40:16.115Z,93.02
2022-12-20T03:42:42.840Z,93.05
2022-12-20T03:45:09.660Z,92.91
2022-12-20T03:47:36.075Z,92.97
2022-12-20T03:50:02.568Z,93.52
2022-12-20T03:52:29.040Z,92.67
2022-12-20T03:54:55.664Z,93.01
2022-12-20T03:57:22.147Z,92.89
2022-12-20T03:59:48.628Z,92.64
2022-12-20T04:02:15.521Z,92.11
2022-12-20T04:04:42.122Z,92.02
2022-12-20T04:07:09.097Z,92.53
2022-12-20T04:09:35.540Z,91.88
2022-12-20T04:12:02.125Z,92.02
2022-12-20T04:14:28.564Z,91.96
2022-12-20T04:16:54.966Z,91.95
2022-12-20T04:19:21.324Z,92.04
2022-12-20T04:21:47.766Z,91.97
2022-12-20T04:24:14.363Z,91.92
2022-12-20T04:26:40.790Z,92.19
2022-12-20T04:29:07.393Z,92.19
2022-12-20T04:31:33.882Z,91.94
2022-12-20T04:34:00.335Z,91.77
2022-12-20T04:36:26.897Z,91.45
2022-12-20T04:38:54.032Z,91.64
2022-12-20T04:41:23.521Z,91.22
2022-12-20T04:43:52.007Z,91.14
2022-12-20T04:46:21.068Z,91.54
2022-12-20T04:48:57.154Z,91.68
2022-12-20T04:51:25.150Z,91.38
2022-12-20T04:53:51.628Z,91.44
2022-12-20T04:56:24.135Z,91.35
2022-12-20T04:58:52.455Z,91.39
2022-12-20T05:01:20.102Z,91.62
2022-12-20T05:03:47.095Z,91.59
2022-12-20T05:06:13.658Z,91.75
2022-12-20T05:08:41.175Z,92.30
2022-12-20T05:11:08.175Z,92.14
2022-12-20T05:13:34.919Z,91.92
2022-12-20T05:16:01.468Z,91.80
2022-12-20T05:18:28.060Z,91.67
2022-12-20T05:21:17.817Z,90.48
2022-12-20T05:24:19.914Z,90.04
2022-12-20T05:26:46.311Z,90.54
2022-12-20T05:29:12.674Z,90.80
2022-12-20T05:31:39.093Z,91.12
2022-12-20T05:34:05.549Z,91.51
2022-12-20T05:36:32.057Z,91.37
2022-12-20T05:39:04.020Z,91.67
2022-12-20T05:41:31.109Z,91.97
2022-12-20T05:43:57.857Z,92.21
2022-12-20T05:46:24.327Z,92.14
2022-12-20T05:48:50.803Z,92.39
2022-12-20T05:51:17.204Z,92.83
2022-12-20T05:53:43.649Z,92.80
2022-12-20T05:56:10.057Z,92.84
2022-12-20T05:58:36.480Z,92.81
2022-12-20T06:01:05.259Z,93.00
2022-12-20T06:03:32.002Z,92.84
2022-12-20T06:05:58.488Z,92.92
2022-12-20T06:08:25.245Z,92.80
2022-12-20T06:10:51.655Z,92.78
2022-12-20T06:13:18.835Z,92.39
2022-12-20T06:15:45.319Z,92.67
2022-12-20T06:18:11.698Z,92.76
2022-12-20T06:20:38.122Z,92.75
2022-12-20T06:23:04.741Z,93.17
2022-12-20T06:25:31.631Z,92.98
2022-12-20T06:27:58.321Z,93.10
2022-12-20T06:30:30.236Z,93.58
2022-12-20T06:33:04.273Z,93.57
2022-12-20T06:35:30.746Z,93.47
2022-12-20T06:37:57.580Z,93.30
2022-12-20T06:40:24.539Z,93.33
2022-12-20T06:42:50.985Z,93.13
2022-12-20T06:45:17.512Z,92.99
2022-12-20T06:47:43.949Z,92.27
2022-12-20T06:50:10.826Z,91.64
2022-12-20T06:52:37.207Z,91.57
2022-12-20T06:55:03.926Z,91.01
2022-12-20T06:57:30.342Z,89.79
2022-12-20T06:59:56.727Z,90.18
2022-12-20T07:02:25.327Z,90.97
2022-12-20T07:04:53.944Z,91.42
2022-12-20T07:07:20.318Z,91.57
2022-12-20T07:09:46.711Z,91.77
2022-12-20T07:12:13.165Z,91.99
2022-12-20T07:14:39.545Z,91.89
2022-12-20T07:17:07.410Z,91.73
2022-12-20T07:19:36.160Z,91.68
2022-12-20T07:22:04.216Z,91.87
2022-12-20T07:24:30.636Z,91.34
2022-12-20T07:26:57.027Z,91.85
2022-12-20T07:29:23.430Z,91.73
2022-12-20T07:31:49.880Z,92.08
2022-12-20T07:34:16.284Z,92.27
2022-12-20T07:36:42.694Z,92.61
2022-12-20T07:39:10.778Z,92.47
2022-12-20T07:41:37.299Z,92.35
2022-12-20T07:44:04.282Z,92.74
2022-12-20T07:46:30.700Z,92.61
2022-12-20T07:48:57.156Z,93.25
2022-12-20T07:51:29.164Z,93.23
2022-12-20T07:54:04.953Z,93.05
2022-12-20T07:56:39.189Z,93.21
2022-12-20T07:59:10.546Z,92.64
2022-12-20T08:01:37.263Z,93.05
2022-12-20T08:04:08.898Z,93.20
2022-12-20T08:06:37.632Z,93.56
2022-12-20T08:09:06.019Z,93.63
2022-12-20T08:11:35.142Z,93.59
2022-12-20T08:14:02.006Z,93.51
2022-12-20T08:16:28.541Z,93.59
2022-12-20T08:18:55.007Z,93.51
2022-12-20T08:21:21.422Z,93.64
2022-12-20T08:23:47.856Z,93.43
2022-12-20T08:26:14.275Z,93.38
2022-12-20T08:28:40.662Z,93.42
2022-12-20T08:31:09.397Z,93.69
2022-12-20T08:33:37.912Z,93.79
2022-12-20T08:36:06.774Z,93.84
2022-12-20T08:38:33.791Z,94.19
2022-12-20T08:41:13.932Z,94.21
2022-12-20T08:43:42.049Z,94.40
2022-12-20T08:46:10.905Z,94.27
2022-12-20T08:48:37.388Z,94.38
2022-12-20T08:51:06.554Z,94.64
2022-12-20T08:53:34.582Z,94.52
2022-12-20T08:56:15.690Z,94.73
2022-12-20T08:58:43.262Z,94.12
2022-12-20T09:01:13.675Z,94.62
2022-12-20T09:03:40.835Z,93.64
2022-12-20T09:06:13.631Z,94.39
2022-12-20T09:08:40.874Z,94.20
2022-12-20T09:11:13.704Z,94.29
2022-12-20T09:13:45.271Z,93.81
2022-12-20T09:16:14.780Z,94.02
2022-12-20T09:18:41.549Z,94.61
2022-12-20T09:21:08.866Z,94.63
2022-12-20T09:23:36.972Z,94.72
2022-12-20T09:26:08.849Z,94.72
2022-12-20T09:28:36.328Z,95.04
2022-12-20T09:31:04.958Z,95.04
2022-12-20T09:33:33.014Z,95.29
2022-12-20T09:36:00.002Z,95.22
2022-12-20T09:38:27.551Z,95.44
2022-12-20T09:40:56.883Z,95.47
2022-12-20T09:43:23.936Z,96.06
2022-12-20T09:45:54.242Z,96.13
2022-12-20T09:48:24.217Z,96.20
2022-12-20T09:51:22.089Z,95.84
2022-12-20T09:53:59.455Z,96.52
2022-12-20T09:56:41.085Z,96.57
2022-12-20T09:59:20.583Z,96.44
2022-12-20T10:01:50.235Z,96.84
2022-12-20T10:04:28.827Z,96.97
2022-12-20T10:06:58.598Z,97.00
2022-12-20T10:10:09.763Z,96.84
2022-12-20T10:12:40.351Z,96.94
2022-12-20T10:15:29.715Z,96.72
2022-12-20T10:18:24.857Z,96.83
2022-12-20T10:21:07.507Z,96.78
2022-12-20T10:23:42.460Z,97.11
2022-12-20T10:26:10.847Z,96.77
2022-12-20T10:28:37.993Z,97.24
2022-12-20T10:31:12.882Z,97.03
2022-12-20T10:33:40.394Z,97.25
2022-12-20T10:36:24.607Z,96.50
2022-12-20T10:38:53.777Z,96.14
2022-12-20T10:41:27.742Z,95.98
2022-12-20T10:43:56.372Z,95.53
2022-12-20T10:46:24.268Z,95.17
2022-12-20T10:48:51.608Z,95.30
2022-12-20T10:51:21.828Z,94.56
2022-12-20T10:54:01.145Z,94.82
2022-12-20T10:56:37.046Z,94.32
2022-12-20T10:59:35.306Z,94.18
2022-12-20T11:02:03.723Z,94.84
2022-12-20T11:04:35.798Z,94.09
2022-12-20T11:07:21.176Z,94.23
2022-12-20T11:10:03.112Z,94.22
2022-12-20T11:12:29.670Z,94.32
2022-12-20T11:15:11.445Z,94.51
2022-12-20T11:17:43.497Z,94.47
2022-12-20T11:20:35.122Z,94.42
2022-12-20T11:23:20.352Z,94.04
2022-12-20T11:26:10.505Z,94.24
2022-12-20T11:28:49.379Z,94.22
2022-12-20T11:31:27.502Z,93.94
2022-12-20T11:34:12.832Z,93.34
2022-12-20T11:37:10.822Z,92.67
2022-12-20T11:39:41.873Z,92.29
2022-12-20T11:42:58.851Z,92.07
2022-12-20T11:45:37.117Z,92.17
2022-12-20T11:48:12.803Z,91.90
2022-12-20T11:51:01.668Z,92.04
2022-12-20T11:53:45.852Z,91.44
2022-12-20T11:56:16.893Z,90.29
2022-12-20T11:58:53.051Z,90.89
2022-12-20T12:01:24.511Z,90.98
2022-12-20T12:04:10.452Z,91.16
2022-12-20T12:06:49.126Z,91.62
2022-12-20T12:09:22.079Z,91.87
2022-12-20T12:12:09.057Z,91.71
2022-12-20T12:14:51.639Z,91.44
2022-12-20T12:17:29.146Z,91.34
2022-12-20T12:20:02.650Z,91.67
2022-12-20T12:22:35.602Z,91.64
2022-12-20T12:25:09.266Z,91.65
2022-12-20T12:27:35.831Z,91.02
2022-12-20T12:30:02.271Z,91.23
2022-12-20T12:32:46.008Z,91.24
2022-12-20T12:35:31.124Z,90.99
2022-12-20T12:38:05.930Z,91.44
2022-12-20T12:40:54.491Z,90.44
2022-12-20T12:43:49.484Z,90.52
2022-12-20T12:46:22.272Z,89.52
2022-12-20T12:49:06.740Z,89.65
2022-12-20T12:51:36.859Z,89.37
2022-12-20T12:54:09.325Z,88.94
2022-12-20T12:56:46.930Z,88.32
2022-12-20T12:59:24.814Z,88.81
2022-12-20T13:01:56.092Z,88.58
2022-12-20T13:04:25.800Z,88.44
2022-12-20T13:07:01.173Z,87.42
2022-12-20T13:09:27.796Z,87.03
2022-12-20T13:12:02.254Z,87.25
2022-12-20T13:14:30.772Z,86.89
2022-12-20T13:17:11.960Z,86.92
2022-12-20T13:19:39.555Z,85.99
2022-12-20T13:22:05.924Z,86.21
2022-12-20T13:24:48.358Z,86.08
2022-12-20T13:27:25.968Z,86.21
2022-12-20T13:30:00.821Z,86.55
2022-12-20T13:32:48.944Z,85.63
2022-12-20T13:35:46.323Z,86.15
2022-12-20T13:38:12.618Z,85.86
2022-12-20T13:40:42.483Z,86.60
2022-12-20T13:43:24.017Z,87.23
2022-12-20T13:46:13.844Z,87.17
2022-12-20T13:48:46.141Z,87.14
2022-12-20T13:51:27.392Z,86.69
2022-12-20T13:53:53.704Z,87.19
2022-12-20T13:56:29.693Z,87.10
2022-12-20T13:58:58.344Z,87.54
2022-12-20T14:01:26.036Z,87.54
2022-12-20T14:03:53.626Z,86.96
2022-12-20T14:06:26.817Z,86.99
2022-12-20T14:08:53.825Z,87.67
2022-12-20T14:11:22.791Z,86.98
2022-12-20T14:14:03.345Z,86.32
2022-12-20T14:16:32.516Z,85.94
2022-12-20T14:19:07.773Z,85.62
2022-12-20T14:21:39.579Z,85.90
2022-12-20T14:24:09.099Z,85.87
2022-12-20T14:26:41.250Z,86.28
2022-12-20T14:29:12.260Z,85.99
2022-12-20T14:31:41.351Z,86.07
2022-12-20T14:34:10.702Z,86.32
2022-12-20T14:36:49.659Z,86.36
2022-12-20T14:39:23.623Z,86.02
2022-12-20T14:41:57.850Z,86.15
2022-12-20T14:44:26.705Z,86.28
2022-12-20T14:46:56.129Z,86.14
2022-12-20T14:49:24.580Z,86.42
2022-12-20T14:51:53.299Z,86.26
2022-12-20T14:54:56.868Z,85.90
2022-12-20T14:57:21.283Z,85.50
2022-12-20T15:00:18.196Z,85.16
2022-12-20T15:02:51.026Z,84.70
2022-12-20T15:05:36.424Z,84.74
2022-12-20T15:08:20.274Z,84.13
2022-12-20T15:10:54.785Z,84.76
2022-12-20T15:13:46.862Z,84.96
2022-12-20T15:16:22.084Z,84.32
2022-12-20T15:18:56.046Z,84.35
2022-12-20T15:21:33.020Z,83.72
2022-12-20T15:24:08.071Z,84.31
2022-12-20T15:26:35.451Z,84.34
2022-12-20T15:29:02.089Z,84.63
2022-12-20T15:31:33.824Z,84.83
2022-12-20T15:34:04.281Z,84.62
2022-12-20T15:36:30.745Z,84.17
2022-12-20T15:39:14.741Z,84.04
2022-12-20T15:41:44.799Z,83.57
2022-12-20T15:44:15.988Z,83.78
2022-12-20T15:46:44.158Z,83.71
2022-12-20T15:49:24.564Z,83.70
2022-12-20T15:51:53.027Z,84.26
2022-12-20T15:54:22.990Z,84.12
2022-12-20T15:56:49.686Z,83.76
2022-12-20T15:59:48.940Z,82.97
2022-12-20T16:02:02.838Z,82.98
2022-12-20T16:04:29.412Z,83.27
2022-12-20T16:06:56.697Z,83.29
2022-12-20T16:09:25.827Z,83.35
2022-12-20T16:11:52.695Z,83.43
2022-12-20T16:14:23.989Z,83.97
2022-12-20T16:16:50.871Z,83.74
2022-12-20T16:19:17.471Z,83.57
2022-12-20T16:21:47.590Z,83.11
2022-12-20T16:24:16.188Z,82.94
2022-12-20T16:26:42.855Z,83.12
2022-12-20T16:29:09.512Z,83.38
2022-12-20T16:31:42.046Z,83.02
2022-12-20T16:34:17.842Z,83.01
2022-12-20T16:36:44.843Z,82.78
2022-12-20T16:39:11.393Z,83.48
2022-12-20T16:41:41.030Z,83.43
2022-12-20T16:44:13.771Z,84.00
2022-12-20T16:46:40.862Z,83.57
2022-12-20T16:49:13.512Z,82.78
2022-12-20T16:51:48.275Z,82.68
2022-12-20T16:54:20.900Z,82.01
2022-12-20T16:56:49.407Z,81.40
2022-12-20T16:59:21.659Z,80.54
2022-12-20T17:01:52.711Z,81.03
2022-12-20T17:04:20.410Z,80.34
2022-12-20T17:06:47.514Z,81.09
2022-12-20T17:09:21.961Z,81.43
2022-12-20T17:11:50.205Z,81.87
2022-12-20T17:14:18.248Z,81.74
2022-12-20T17:16:44.714Z,82.11
2022-12-20T17:19:11.353Z,82.02
2022-12-20T17:24:27.777Z,82.16
2022-12-20T17:26:55.227Z,82.47
2022-12-20T17:29:21.737Z,82.38
2022-12-20T17:31:48.589Z,81.92
2022-12-20T17:34:22.100Z,81.95
2022-12-20T17:36:50.350Z,82.24
2022-12-20T17:39:17.548Z,82.25
2022-12-20T17:41:45.142Z,82.50
2022-12-20T17:44:22.749Z,82.53
2022-12-20T17:46:49.627Z,82.17
2022-12-20T17:49:16.437Z,82.24
2022-12-20T17:51:43.524Z,82.15
2022-12-20T17:54:21.425Z,82.25
2022-12-20T17:56:49.611Z,82.37
2022-12-20T17:59:16.463Z,82.59
2022-12-20T18:01:44.744Z,82.54
2022-12-20T18:04:13.665Z,82.38
2022-12-20T18:06:41.974Z,82.36
2022-12-20T18:09:15.734Z,82.26
2022-12-20T18:11:42.705Z,81.35
2022-12-20T18:14:09.153Z,81.50
2022-12-20T18:16:35.776Z,81.66
2022-12-20T18:19:02.535Z,81.51
2022-12-20T18:21:29.146Z,81.70
2022-12-20T18:23:55.842Z,82.06
2022-12-20T18:26:25.901Z,82.66
2022-12-20T18:29:00.784Z,82.47
2022-12-20T18:31:29.987Z,82.43
2022-12-20T18:33:58.613Z,82.47
2022-12-20T18:36:27.731Z,82.35
2022-12-20T18:38:54.759Z,81.79
2022-12-20T18:41:26.564Z,82.62
2022-12-20T18:43:56.079Z,81.75
2022-12-20T18:46:23.929Z,82.50
2022-12-20T18:48:53.003Z,82.04
2022-12-20T18:51:22.174Z,81.90
2022-12-20T18:53:49.693Z,81.81
2022-12-20T18:56:19.833Z,81.42
2022-12-20T18:58:47.726Z,81.55
2022-12-20T19:01:23.963Z,81.60
2022-12-20T19:03:51.238Z,82.04
2022-12-20T19:06:18.158Z,81.40
2022-12-20T19:08:44.881Z,81.67
2022-12-20T19:11:13.768Z,81.72
2022-12-20T19:13:42.643Z,82.20
2022-12-20T19:16:13.462Z,81.89
2022-12-20T19:18:41.019Z,81.72
2022-12-20T19:21:15.247Z,81.37
2022-12-20T19:23:43.296Z,81.43
2022-12-20T19:26:12.780Z,81.74
2022-12-20T19:28:40.409Z,81.80
2022-12-20T19:31:21.587Z,81.74
2022-12-20T19:33:48.605Z,81.65
2022-12-20T19:36:26.959Z,81.83
2022-12-20T19:38:55.986Z,81.92
2022-12-20T19:41:24.160Z,81.94
2022-12-20T19:43:54.010Z,82.14
2022-12-20T19:46:27.994Z,82.47
2022-12-20T19:48:55.532Z,82.62
2022-12-20T19:51:22.109Z,82.94
2022-12-20T19:53:50.897Z,83.84
2022-12-20T19:56:22.577Z,84.18
2022-12-20T19:58:49.466Z,85.09
2022-12-20T20:01:17.959Z,84.91
2022-12-20T20:03:44.823Z,85.16
2022-12-20T20:06:11.848Z,84.32
2022-12-20T20:08:38.232Z,84.72
2022-12-20T20:11:09.401Z,85.03
2022-12-20T20:13:36.842Z,85.15
2022-12-20T20:16:04.156Z,85.42
2022-12-20T20:18:33.962Z,85.75
2022-12-20T20:21:12.308Z,85.43
2022-12-20T20:23:39.711Z,85.59
2022-12-20T20:26:13.585Z,85.51
2022-12-20T20:28:44.951Z,85.39
2022-12-20T20:31:17.153Z,85.50
2022-12-20T20:33:44.297Z,84.67
2022-12-20T20:36:14.472Z,84.58
2022-12-20T20:38:41.096Z,84.42
2022-12-20T20:41:07.908Z,84.51
2022-12-20T20:43:37.788Z,84.98
2022-12-20T20:46:06.054Z,85.12
2022-12-20T20:48:32.665Z,85.16
2022-12-20T20:50:59.212Z,85.37
2022-12-20T20:53:32.740Z,85.63
2022-12-20T20:56:00.083Z,85.71
2022-12-20T20:58:27.027Z,84.99
2022-12-20T21:00:58.829Z,84.89
2022-12-20T21:03:27.249Z,84.74
2022-12-20T21:08:40.818Z,84.98
2022-12-20T21:11:08.838Z,84.62
2022-12-20T21:13:35.690Z,84.35
2022-12-20T21:16:10.660Z,84.83
2022-12-20T21:18:37.623Z,84.74
2022-12-20T21:21:09.027Z,84.91
2022-12-20T21:23:35.526Z,84.44
2022-12-20T21:26:02.111Z,84.83
2022-12-20T21:28:28.663Z,84.94
2022-12-20T21:31:02.556Z,85.18
2022-12-20T21:33:29.515Z,84.48
2022-12-20T21:36:01.106Z,84.69
2022-12-20T21:38:27.596Z,84.32
2022-12-20T21:40:59.885Z,84.28
2022-12-20T21:43:26.441Z,84.59
2022-12-20T21:45:52.859Z,84.74
2022-12-20T21:48:19.578Z,84.28
2022-12-20T21:50:46.290Z,84.92
2022-12-20T21:53:19.072Z,84.62
2022-12-20T21:55:45.999Z,84.79
2022-12-20T21:58:12.448Z,84.62
2022-12-20T22:00:38.907Z,84.62
2022-12-20T22:03:05.367Z,85.03
2022-12-20T22:05:31.946Z,84.95
2022-12-20T22:07:58.452Z,84.87
2022-12-20T22:10:25.036Z,85.23
2022-12-20T22:12:51.441Z,85.13
2022-12-20T22:15:17.904Z,84.72
2022-12-20T22:17:44.912Z,85.16
2022-12-20T22:20:12.481Z,85.19
2022-12-20T22:22:38.872Z,84.94
2022-12-20T22:25:05.549Z,84.94
2022-12-20T22:27:32.056Z,84.79
2022-12-20T22:29:58.490Z,83.71
2022-12-20T22:32:24.976Z,84.49
2022-12-20T22:34:51.401Z,84.93
2022-12-20T22:37:17.811Z,85.63
2022-12-20T22:39:44.228Z,85.08
2022-12-20T22:42:10.588Z,85.53
2022-12-20T22:44:37.123Z,85.24
2022-12-20T22:47:03.521Z,85.19
2022-12-20T22:49:30.095Z,84.82
2022-12-20T22:52:06.875Z,84.99
2022-12-20T22:54:35.347Z,84.62
2022-12-20T22:57:01.906Z,84.59
2022-12-20T22:59:28.379Z,84.85
2022-12-20T23:01:55.011Z,84.39
2022-12-20T23:04:21.472Z,84.04
2022-12-20T23:06:47.853Z,83.69
2022-12-20T23:09:14.197Z,83.50
2022-12-20T23:11:59.344Z,83.64
2022-12-20T23:14:44.251Z,83.74
2022-12-20T23:17:11.013Z,84.14
2022-12-20T23:19:56.775Z,84.37
2022-12-20T23:22:40.305Z,84.35
2022-12-20T23:25:11.531Z,84.37
2022-12-20T23:27:39.413Z,83.89
2022-12-20T23:30:08.410Z,83.29
2022-12-20T23:32:35.149Z,82.73
2022-12-20T23:35:06.801Z,82.67
2022-12-20T23:37:36.725Z,83.27
2022-12-20T23:40:03.879Z,83.79
2022-12-20T23:42:30.309Z,84.44
2022-12-20T23:44:56.666Z,84.59
2022-12-20T23:47:23.047Z,84.10
2022-12-20T23:49:50.952Z,84.88
2022-12-20T23:52:17.715Z,85.32
2022-12-20T23:54:44.243Z,85.81
2022-12-20T23:57:13.915Z,86.39
2022-12-20T23:59:40.302Z,86.52
